Guenther Schulte — VRGK8 — position and weather

sailwx.info

Track history (hours):
 
Tides and Currents Weather Stations Pressure Air Temp Water Temp Dewpoint Dewpoint Depression Visibility Wind Speed Wind Dir Waves Ship Positions

Guenther Schulte

Last reported at 2016-Apr-17 01:06 UTC. Time now 2016-Apr-30 09:04 UTC.
Position S 37°33' E 176°12'.
Warning: this ship's position is 13 days out of date.

Length 231 m; draft 10.3 m.

Type: Ship (hazmat cat C). MMSI: 477728800.

Date/timePositionNaut miles runAvg speedWind from/ knotsBaromVisibWave heightAir tempDewpointWater temp
2016-Apr-17 01:06S 37°33' E 176°12'5 9.8
2016-Apr-17 00:34S 37°38' E 176°11'1 0.4
2016-Apr-16 21:31S 37°40' E 176°11'0 0.0
2016-Apr-16 20:31S 37°40' E 176°11'0 0.0
2016-Apr-16 19:19S 37°40' E 176°11'0 0.0
2016-Apr-16 10:34S 37°40' E 176°11'0 0.0
2016-Apr-16 09:25S 37°40' E 176°11'0 0.2
2016-Apr-16 08:34S 37°40' E 176°11'  
2016-Apr-11 09:31S 36°07' E 150°40'1414.8
2016-Apr-11 08:33S 36°21' E 150°34'1414.0
2016-Apr-11 07:33S 36°34' E 150°29'1313.5
2016-Apr-11 06:33S 36°47' E 150°24'1110.7
2016-Apr-11 05:33S 36°57' E 150°21'1010.3
2016-Apr-11 04:33S 37°07' E 150°17'1313.2
2016-Apr-11 03:33S 37°20' E 150°12'1515.3
2016-Apr-11 02:33S 37°34' E 150°05'1312.6
2016-Apr-11 01:33S 37°43' E 149°54'1212.4
2016-Apr-11 00:33S 37°51' E 149°42'1111.5
2016-Apr-10 23:33S 37°59' E 149°31'1211.7
2016-Apr-10 22:33S 38°06' E 149°20'1716.6
2016-Apr-10 21:33S 38°17' E 149°04'8316.5
2016-Apr-10 16:33S 38°59' E 147°33'1616.3
2016-Apr-10 15:33S 39°04' E 147°13'1615.9
2016-Apr-10 14:33S 39°10' E 146°54'1615.9
2016-Apr-10 13:33S 39°16' E 146°35'1616.0
2016-Apr-10 12:33S 39°16' E 146°14'1615.9
2016-Apr-10 11:33S 39°09' E 145°55'1616.3
2016-Apr-10 10:34S 39°00' E 145°38'  
Track history (hours):
 
Tides and Currents Weather Stations Pressure Air Temp Water Temp Dewpoint Dewpoint Depression Visibility Wind Speed Wind Dir Waves Ship Positions

Guenther Schulte

Last reported at 2016-Apr-17 01:06 UTC. Time now 2016-Apr-30 09:04 UTC.
Position S 37°33' E 176°12'.
Warning: this ship's position is 13 days out of date.

Length 231 m; draft 10.3 m.

Type: Ship (hazmat cat C). MMSI: 477728800.

Date/timePositionNaut miles runAvg speedWind from/ knotsBaromVisibWave heightAir tempDewpointWater temp
2016-Apr-17 01:06S 37°33' E 176°12'5 9.8
2016-Apr-17 00:34S 37°38' E 176°11'1 0.4
2016-Apr-16 21:31S 37°40' E 176°11'0 0.0
2016-Apr-16 20:31S 37°40' E 176°11'0 0.0
2016-Apr-16 19:19S 37°40' E 176°11'0 0.0
2016-Apr-16 10:34S 37°40' E 176°11'0 0.0
2016-Apr-16 09:25S 37°40' E 176°11'0 0.2
2016-Apr-16 08:34S 37°40' E 176°11'  
2016-Apr-11 09:31S 36°07' E 150°40'1414.8
2016-Apr-11 08:33S 36°21' E 150°34'1414.0
2016-Apr-11 07:33S 36°34' E 150°29'1313.5
2016-Apr-11 06:33S 36°47' E 150°24'1110.7
2016-Apr-11 05:33S 36°57' E 150°21'1010.3
2016-Apr-11 04:33S 37°07' E 150°17'1313.2
2016-Apr-11 03:33S 37°20' E 150°12'1515.3
2016-Apr-11 02:33S 37°34' E 150°05'1312.6
2016-Apr-11 01:33S 37°43' E 149°54'1212.4
2016-Apr-11 00:33S 37°51' E 149°42'1111.5
2016-Apr-10 23:33S 37°59' E 149°31'1211.7
2016-Apr-10 22:33S 38°06' E 149°20'1716.6
2016-Apr-10 21:33S 38°17' E 149°04'8316.5
2016-Apr-10 16:33S 38°59' E 147°33'1616.3
2016-Apr-10 15:33S 39°04' E 147°13'1615.9
2016-Apr-10 14:33S 39°10' E 146°54'1615.9
2016-Apr-10 13:33S 39°16' E 146°35'1616.0
2016-Apr-10 12:33S 39°16' E 146°14'1615.9
2016-Apr-10 11:33S 39°09' E 145°55'1616.3
2016-Apr-10 10:34S 39°00' E 145°38'  

Dump ship's entire track history